Time;durP1;ratioP1;P1;durP2;ratioP2;P2;SDS_P1;SDS_P2;PMS_P1;PMS_P2;Temp;Humidity;BMP_temperature;BMP_pressure;BME280_temperature;BME280_humidity;BME280_pressure;Samples;Min_cycle;Max_cycle;Signal;HPM_P1;HPM_P2
2022/02/23 05:00:59;;;;;;;6.05;2.33;;;6.40;99.90;;;;;;5629026;23;20265;-68
2022/02/23 05:03:26;;;;;;;11.10;3.42;;;6.40;99.90;;;;;;4905658;29;20245;-69
2022/02/23 05:05:53;;;;;;;15.73;3.85;;;6.40;99.90;;;;;;4916389;29;20658;-68
2022/02/23 05:08:20;;;;;;;12.50;2.95;;;6.40;99.90;;;;;;4911587;29;20210;-68
2022/02/23 05:10:47;;;;;;;11.77;3.38;;;6.40;99.90;;;;;;4915902;29;20297;-67
2022/02/23 05:13:14;;;;;;;12.15;2.67;;;6.40;99.90;;;;;;4914727;29;20210;-68
2022/02/23 05:15:41;;;;;;;9.65;2.42;;;6.40;99.90;;;;;;4915451;29;20207;-68
2022/02/23 05:18:09;;;;;;;10.05;2.35;;;6.40;99.90;;;;;;4915074;29;20214;-68
2022/02/23 05:20:37;;;;;;;10.68;2.33;;;6.40;99.90;;;;;;4914973;29;20327;-69
2022/02/23 05:23:05;;;;;;;11.82;2.70;;;6.40;99.90;;;;;;4913076;29;20234;-69
2022/02/23 05:25:32;;;;;;;11.32;2.75;;;6.40;99.90;;;;;;4907088;29;20207;-68
2022/02/23 05:27:59;;;;;;;7.15;1.70;;;6.40;99.90;;;;;;4915072;29;20611;-68
2022/02/23 05:30:26;;;;;;;9.07;2.30;;;6.40;99.90;;;;;;4914945;29;20258;-69
2022/02/23 05:32:53;;;;;;;10.27;2.80;;;6.40;99.90;;;;;;4941884;23;20360;-69
2022/02/23 05:35:21;;;;;;;8.70;2.55;;;6.40;99.90;;;;;;4918091;29;20211;-68
2022/02/23 05:37:48;;;;;;;9.68;2.55;;;6.40;99.90;;;;;;4915352;29;20207;-69
2022/02/23 05:40:15;;;;;;;9.88;2.20;;;6.40;99.90;;;;;;4914998;29;20325;-68
2022/02/23 05:42:42;;;;;;;12.05;2.50;;;6.40;99.90;;;;;;4915562;29;20234;-68
2022/02/23 05:45:09;;;;;;;11.70;2.85;;;6.40;99.90;;;;;;4915184;29;20218;-68
2022/02/23 05:47:36;;;;;;;4.93;2.17;;;6.40;99.90;;;;;;4904899;29;20210;-67
2022/02/23 05:50:04;;;;;;;12.77;2.78;;;6.40;99.90;;;;;;4910254;29;20203;-68
2022/02/23 05:52:32;;;;;;;12.85;2.35;;;6.50;99.90;;;;;;4906412;29;20223;-68
2022/02/23 05:54:59;;;;;;;18.17;3.55;;;6.40;99.90;;;;;;4914621;29;20611;-68
2022/02/23 05:57:25;;;;;;;7.82;2.40;;;6.40;99.90;;;;;;4913819;29;20270;-67
2022/02/23 05:59:52;;;;;;;11.95;2.85;;;6.50;99.90;;;;;;4913842;29;20206;-68
2022/02/23 06:02:19;;;;;;;12.48;3.42;;;6.40;99.90;;;;;;4913567;29;20265;-68
2022/02/23 06:04:45;;;;;;;8.93;2.72;;;6.50;99.90;;;;;;4913520;29;20229;-69
2022/02/23 06:07:12;;;;;;;9.57;2.72;;;6.50;99.90;;;;;;4913780;29;20203;-68
2022/02/23 06:09:40;;;;;;;5.13;1.90;;;6.50;99.90;;;;;;4913139;29;20289;-68
2022/02/23 06:12:07;;;;;;;9.57;2.88;;;6.40;99.90;;;;;;4914013;29;20377;-69
2022/02/23 06:14:34;;;;;;;6.22;1.98;;;6.40;99.90;;;;;;4904094;29;20275;-69
2022/02/23 06:17:01;;;;;;;4.63;2.00;;;6.40;99.90;;;;;;4906103;29;20229;-68
2022/02/23 06:19:28;;;;;;;9.90;2.47;;;6.40;99.90;;;;;;4905699;29;20274;-69
2022/02/23 06:21:55;;;;;;;9.25;2.30;;;6.40;99.90;;;;;;4904731;29;20211;-69
2022/02/23 06:24:23;;;;;;;13.93;3.05;;;6.50;99.90;;;;;;4906416;29;20227;-69
2022/02/23 06:26:51;;;;;;;11.23;2.63;;;6.50;99.90;;;;;;4903682;29;20250;-69
2022/02/23 06:29:18;;;;;;;8.02;2.20;;;6.50;99.90;;;;;;4907633;29;20219;-68
2022/02/23 06:31:57;;;;;;;8.73;2.50;;;6.60;99.90;;;;;;4902359;29;20230;-69
2022/02/23 06:34:24;;;;;;;10.68;2.22;;;6.60;99.90;;;;;;4912994;29;20253;-68
2022/02/23 06:36:51;;;;;;;12.60;2.10;;;6.50;99.90;;;;;;4911197;29;20266;-69
2022/02/23 06:39:19;;;;;;;9.70;2.88;;;6.50;99.90;;;;;;4911073;29;20210;-67
2022/02/23 06:41:46;;;;;;;17.83;4.07;;;6.50;99.90;;;;;;4906007;29;20203;-68
2022/02/23 06:44:14;;;;;;;7.00;2.80;;;6.50;99.90;;;;;;4904919;29;20242;-69
2022/02/23 06:46:41;;;;;;;9.23;3.47;;;6.50;99.90;;;;;;4907407;29;20261;-68
2022/02/23 06:49:08;;;;;;;8.20;2.53;;;6.50;99.90;;;;;;4912573;29;20214;-68
2022/02/23 06:51:35;;;;;;;9.27;2.85;;;6.50;99.90;;;;;;4914591;29;20198;-69
2022/02/23 06:54:02;;;;;;;7.95;2.10;;;6.50;99.90;;;;;;4912794;29;20203;-69
2022/02/23 06:56:28;;;;;;;5.90;2.28;;;6.40;99.90;;;;;;4914543;29;20262;-70
2022/02/23 06:58:55;;;;;;;11.75;2.85;;;6.40;99.90;;;;;;4912878;29;20219;-70
2022/02/23 07:01:24;;;;;;;9.07;2.40;;;6.40;99.90;;;;;;4912168;29;20210;-69
2022/02/23 07:03:53;;;;;;;9.38;2.28;;;6.40;99.90;;;;;;4912701;29;20690;-69
2022/02/23 07:06:20;;;;;;;7.32;1.95;;;6.40;99.90;;;;;;4913979;29;20707;-69
2022/02/23 07:08:48;;;;;;;11.90;3.03;;;6.40;99.90;;;;;;4913550;29;20700;-69
2022/02/23 07:11:15;;;;;;;7.45;2.30;;;6.40;99.90;;;;;;4917864;29;20289;-68
2022/02/23 07:13:43;;;;;;;8.18;3.05;;;6.40;99.90;;;;;;4916518;29;20258;-70
2022/02/23 07:16:12;;;;;;;4.65;2.30;;;6.50;99.90;;;;;;4917903;29;20638;-70
2022/02/23 07:18:41;;;;;;;8.98;1.80;;;6.40;99.90;;;;;;4912338;29;20231;-69
2022/02/23 07:21:08;;;;;;;8.05;2.22;;;6.40;99.90;;;;;;4915044;29;20210;-69
2022/02/23 07:23:36;;;;;;;11.57;2.58;;;6.50;99.90;;;;;;4917150;29;20329;-68
2022/02/23 07:26:02;;;;;;;13.07;2.25;;;6.40;99.90;;;;;;4916925;29;20243;-68
2022/02/23 07:28:29;;;;;;;9.55;3.05;;;6.50;99.90;;;;;;4913508;29;20614;-70
2022/02/23 07:30:56;;;;;;;8.30;2.10;;;6.50;99.90;;;;;;4906512;29;20342;-69
2022/02/23 07:33:22;;;;;;;3.42;2.00;;;6.60;99.90;;;;;;4907508;29;20230;-69
2022/02/23 07:35:50;;;;;;;6.50;1.45;;;6.60;99.90;;;;;;4917219;29;20207;-69
2022/02/23 07:38:17;;;;;;;3.22;2.15;;;6.70;99.90;;;;;;4917268;29;20236;-69
2022/02/23 07:40:44;;;;;;;7.90;2.40;;;6.70;99.90;;;;;;4917731;29;20218;-68
2022/02/23 07:43:11;;;;;;;11.55;2.65;;;6.70;99.90;;;;;;4916163;29;20222;-68
2022/02/23 07:45:40;;;;;;;10.00;3.17;;;6.70;99.90;;;;;;4917374;29;20225;-68
2022/02/23 07:48:08;;;;;;;6.13;2.10;;;6.70;99.90;;;;;;4908889;29;20592;-68
2022/02/23 07:50:35;;;;;;;8.27;2.70;;;6.80;99.90;;;;;;4913938;29;20680;-68
2022/02/23 07:53:03;;;;;;;18.88;2.35;;;6.80;99.90;;;;;;4911092;29;20226;-68
2022/02/23 07:55:30;;;;;;;8.25;2.72;;;6.80;99.90;;;;;;4913169;29;20530;-68
2022/02/23 07:57:58;;;;;;;9.40;2.42;;;6.90;99.90;;;;;;4915686;29;20210;-68
2022/02/23 08:00:27;;;;;;;10.20;2.80;;;6.90;99.90;;;;;;4913645;29;20203;-68
2022/02/23 08:02:54;;;;;;;7.22;2.22;;;7.00;99.90;;;;;;4915824;29;20774;-68
2022/02/23 08:05:21;;;;;;;8.02;2.80;;;7.00;99.90;;;;;;4914921;29;20234;-66
2022/02/23 08:07:47;;;;;;;4.97;3.28;;;7.00;99.90;;;;;;4917090;29;20573;-69
2022/02/23 08:10:15;;;;;;;7.80;3.50;;;7.00;99.90;;;;;;4913858;29;20211;-68
2022/02/23 08:12:42;;;;;;;9.80;2.45;;;7.00;99.90;;;;;;4903592;29;20222;-67
2022/02/23 08:20:39;;;;;;;6.53;2.00;;;7.10;99.90;;;;;;4914221;29;20293;-69
2022/02/23 08:23:06;;;;;;;9.13;1.95;;;7.10;99.90;;;;;;4916382;29;20230;-69
2022/02/23 08:25:34;;;;;;;4.22;2.30;;;7.20;99.90;;;;;;4915546;29;20230;-69
2022/02/23 08:28:01;;;;;;;13.00;2.60;;;7.20;99.90;;;;;;4912567;29;20271;-69
2022/02/23 08:30:28;;;;;;;10.02;1.95;;;7.20;99.90;;;;;;4912808;29;20690;-69
2022/02/23 08:32:55;;;;;;;4.45;2.00;;;7.20;99.90;;;;;;4913968;29;20301;-69
2022/02/23 08:35:22;;;;;;;13.27;2.83;;;7.20;99.90;;;;;;4915466;29;20213;-68
2022/02/23 08:37:49;;;;;;;8.13;2.78;;;7.30;99.90;;;;;;4908598;29;20685;-69
2022/02/23 08:40:16;;;;;;;7.20;2.03;;;7.30;99.90;;;;;;4914449;29;20637;-69
2022/02/23 08:42:44;;;;;;;4.95;2.40;;;7.40;99.90;;;;;;4915535;29;20246;-68
2022/02/23 08:45:11;;;;;;;4.47;2.22;;;7.40;99.90;;;;;;4915137;29;20238;-69
2022/02/23 08:47:37;;;;;;;7.25;2.95;;;7.50;99.90;;;;;;4909349;29;20203;-69
2022/02/23 08:50:05;;;;;;;5.22;2.00;;;7.50;99.90;;;;;;4910801;29;20214;-71
2022/02/23 08:52:32;;;;;;;9.48;3.90;;;7.60;99.90;;;;;;4909934;29;20230;-70
2022/02/23 08:54:58;;;;;;;8.27;2.53;;;7.70;99.90;;;;;;4907775;29;20641;-69
2022/02/23 08:57:26;;;;;;;4.75;1.75;;;7.70;99.90;;;;;;4914063;29;20680;-70
2022/02/23 08:59:54;;;;;;;6.50;2.50;;;7.70;99.90;;;;;;4909086;29;20262;-70
2022/02/23 09:02:20;;;;;;;10.73;2.60;;;7.70;99.90;;;;;;4898980;29;20230;-71
2022/02/23 09:04:47;;;;;;;8.93;2.38;;;7.70;99.90;;;;;;4913913;29;20230;-69
2022/02/23 09:07:14;;;;;;;9.70;3.10;;;7.70;99.90;;;;;;4916008;29;20226;-70
2022/02/23 09:09:40;;;;;;;11.73;2.70;;;7.60;99.90;;;;;;4903012;29;20266;-70
2022/02/23 09:12:08;;;;;;;12.18;2.67;;;7.60;99.90;;;;;;4913710;29;20226;-70
2022/02/23 09:14:35;;;;;;;7.35;2.40;;;7.60;99.90;;;;;;4915774;29;20232;-69
2022/02/23 09:17:04;;;;;;;11.82;2.75;;;7.70;99.90;;;;;;4911875;29;20226;-70
2022/02/23 09:19:30;;;;;;;14.30;3.30;;;7.70;99.90;;;;;;4915154;29;20243;-68
2022/02/23 09:21:57;;;;;;;15.70;3.05;;;7.80;99.90;;;;;;4915530;29;20583;-69
2022/02/23 09:24:24;;;;;;;12.95;3.00;;;7.70;99.90;;;;;;4915689;29;20298;-70
2022/02/23 09:26:50;;;;;;;5.88;1.95;;;7.80;99.90;;;;;;4912847;29;20277;-70
2022/02/23 09:29:17;;;;;;;7.15;2.28;;;7.80;99.90;;;;;;4915251;29;20206;-70
2022/02/23 09:31:44;;;;;;;15.43;3.70;;;7.80;99.90;;;;;;4914798;29;20278;-70
2022/02/23 09:34:13;;;;;;;9.88;2.75;;;7.80;99.90;;;;;;4914612;29;20618;-70
2022/02/23 09:36:41;;;;;;;5.43;2.80;;;7.90;99.90;;;;;;4915472;29;20210;-69
2022/02/23 09:39:09;;;;;;;10.05;2.78;;;8.00;99.90;;;;;;4916927;29;20210;-69
2022/02/23 09:41:36;;;;;;;8.88;3.63;;;8.10;99.90;;;;;;4915036;29;20207;-70
2022/02/23 09:44:03;;;;;;;13.20;3.08;;;8.20;99.90;;;;;;4914774;29;20658;-70
2022/02/23 09:46:30;;;;;;;5.15;3.45;;;8.20;99.90;;;;;;4914940;29;20290;-69
2022/02/23 09:48:58;;;;;;;8.13;2.50;;;8.20;99.90;;;;;;4914305;29;20216;-70
2022/02/23 09:51:26;;;;;;;9.27;3.00;;;8.20;99.90;;;;;;4915113;29;20215;-69
2022/02/23 09:53:55;;;;;;;8.55;2.85;;;8.20;99.90;;;;;;4914607;29;20285;-70
2022/02/23 09:56:22;;;;;;;5.60;2.60;;;8.20;99.90;;;;;;4915177;29;20221;-70
2022/02/23 09:58:50;;;;;;;9.23;4.93;;;8.30;99.90;;;;;;4914556;29;20217;-71
2022/02/23 10:01:17;;;;;;;4.10;3.05;;;8.40;99.90;;;;;;4910183;29;20218;-70
2022/02/23 10:03:45;;;;;;;4.35;3.17;;;8.50;99.90;;;;;;4913892;29;20258;-70
2022/02/23 10:06:19;;;;;;;8.75;3.10;;;8.40;99.90;;;;;;4914920;29;20214;-70
2022/02/23 10:08:47;;;;;;;11.20;2.75;;;8.60;99.90;;;;;;4914763;29;20300;-70
2022/02/23 10:11:18;;;;;;;7.63;3.42;;;8.60;99.90;;;;;;4914713;29;20566;-69
2022/02/23 10:13:50;;;;;;;8.52;2.97;;;8.60;99.90;;;;;;4914811;29;20290;-69
2022/02/23 10:16:17;;;;;;;10.15;2.90;;;8.60;99.90;;;;;;4914165;29;20791;-69
2022/02/23 10:18:43;;;;;;;14.13;3.83;;;8.50;99.90;;;;;;4914180;29;20270;-70
2022/02/23 10:21:10;;;;;;;8.10;2.50;;;8.50;99.90;;;;;;4914369;29;20680;-69
2022/02/23 10:23:37;;;;;;;7.15;3.65;;;8.50;99.90;;;;;;4914153;29;20231;-70
2022/02/23 10:26:09;;;;;;;5.35;3.00;;;8.60;99.90;;;;;;4914794;29;20234;-71
2022/02/23 10:28:37;;;;;;;9.00;3.08;;;8.60;99.90;;;;;;4914320;29;20210;-70
2022/02/23 10:31:06;;;;;;;11.43;4.30;;;8.60;99.90;;;;;;4913933;29;20214;-71
2022/02/23 10:33:36;;;;;;;7.13;2.58;;;8.70;99.90;;;;;;4913163;29;20293;-68
2022/02/23 10:36:06;;;;;;;8.35;3.00;;;8.70;99.90;;;;;;4914534;29;20210;-69
2022/02/23 10:38:34;;;;;;;5.05;2.50;;;8.80;99.90;;;;;;4914223;29;20238;-70
2022/02/23 10:41:06;;;;;;;11.45;3.38;;;8.80;99.90;;;;;;4914366;29;20222;-70
2022/02/23 10:43:35;;;;;;;3.50;2.47;;;8.80;99.90;;;;;;4912235;29;20233;-71
2022/02/23 10:46:05;;;;;;;4.63;2.42;;;8.90;99.90;;;;;;4914021;29;20230;-69
2022/02/23 10:48:38;;;;;;;9.20;1.90;;;8.90;99.90;;;;;;4911407;29;20210;-70
2022/02/23 10:51:06;;;;;;;7.30;1.90;;;8.90;99.90;;;;;;4913553;29;20672;-71
2022/02/23 10:53:35;;;;;;;6.68;2.53;;;9.00;99.90;;;;;;4914391;29;20595;-71
2022/02/23 10:56:19;;;;;;;7.22;2.15;;;9.10;99.90;;;;;;4914423;29;20209;-71
2022/02/23 10:58:47;;;;;;;5.40;2.05;;;9.10;99.90;;;;;;4914242;29;20621;-70
2022/02/23 11:01:15;;;;;;;7.70;2.75;;;9.10;99.90;;;;;;4913806;29;20207;-70
2022/02/23 11:03:42;;;;;;;10.00;2.28;;;9.10;99.90;;;;;;4913225;29;20235;-70
2022/02/23 11:06:10;;;;;;;3.88;2.17;;;9.10;99.90;;;;;;4913003;29;20241;-71
2022/02/23 11:08:37;;;;;;;4.00;2.33;;;9.20;99.90;;;;;;4910074;29;20211;-71
2022/02/23 11:11:05;;;;;;;7.68;2.08;;;9.20;99.90;;;;;;4913221;29;20265;-70
2022/02/23 11:13:32;;;;;;;2.38;1.60;;;9.10;99.90;;;;;;4909103;29;20223;-68
2022/02/23 11:16:01;;;;;;;6.45;2.58;;;9.10;99.90;;;;;;4909362;29;20203;-69
2022/02/23 11:18:30;;;;;;;5.90;1.95;;;9.10;99.90;;;;;;4913514;29;20214;-69
2022/02/23 11:20:58;;;;;;;4.53;2.28;;;9.30;99.90;;;;;;4913345;29;20305;-68
2022/02/23 11:23:25;;;;;;;3.55;2.38;;;9.30;99.90;;;;;;4913409;29;20226;-68
2022/02/23 11:25:54;;;;;;;4.03;2.35;;;9.30;99.90;;;;;;4913609;29;20226;-70
2022/02/23 11:28:23;;;;;;;7.07;2.03;;;9.20;99.90;;;;;;4912923;29;20218;-68
2022/02/23 11:30:54;;;;;;;5.45;1.50;;;9.20;99.90;;;;;;4913503;29;20207;-69
2022/02/23 11:33:59;;;;;;;2.13;1.80;;;9.10;99.90;;;;;;4895135;29;20239;-69
2022/02/23 11:36:29;;;;;;;3.63;1.67;;;9.10;99.90;;;;;;4903536;29;20683;-69
2022/02/23 11:38:59;;;;;;;3.17;1.88;;;9.10;99.90;;;;;;4912389;29;20206;-69
2022/02/23 11:41:29;;;;;;;2.08;1.42;;;9.20;99.90;;;;;;4895318;29;20275;-70
2022/02/23 11:44:10;;;;;;;4.35;1.73;;;9.30;99.90;;;;;;4908969;29;20229;-69
2022/02/23 11:46:56;;;;;;;4.47;1.75;;;9.30;99.90;;;;;;4911035;29;20226;-70
2022/02/23 11:49:27;;;;;;;3.33;1.63;;;9.40;99.90;;;;;;4908496;29;20684;-69
2022/02/23 11:52:07;;;;;;;2.97;1.50;;;9.30;99.90;;;;;;4908234;29;20634;-69
2022/02/23 11:54:54;;;;;;;4.65;1.58;;;9.40;99.90;;;;;;4908507;29;20214;-69
2022/02/23 11:57:39;;;;;;;7.47;2.00;;;9.30;99.90;;;;;;4914694;29;20203;-69
2022/02/23 12:00:07;;;;;;;1.98;1.50;;;9.20;99.90;;;;;;4906857;29;20266;-69
2022/02/23 12:02:35;;;;;;;2.60;2.35;;;9.20;99.90;;;;;;4915787;29;20262;-69
2022/02/23 12:05:04;;;;;;;6.53;1.50;;;9.20;99.90;;;;;;4917466;29;20652;-69
2022/02/23 12:07:47;;;;;;;2.97;1.10;;;9.20;99.90;;;;;;4914891;29;20217;-69
2022/02/23 12:10:14;;;;;;;2.40;1.38;;;9.10;99.90;;;;;;4915932;29;20325;-68
2022/02/23 12:12:43;;;;;;;3.60;1.90;;;9.10;99.90;;;;;;4916862;29;20226;-67
2022/02/23 12:15:11;;;;;;;1.67;1.55;;;9.10;99.90;;;;;;4916116;29;20211;-67
2022/02/23 12:17:48;;;;;;;1.75;1.27;;;9.20;99.90;;;;;;4914972;29;20209;-69
2022/02/23 12:20:54;;;;;;;2.55;1.40;;;9.30;99.90;;;;;;4897824;29;20211;-69
2022/02/23 12:23:35;;;;;;;1.45;0.80;;;9.40;99.90;;;;;;4913158;29;20227;-69
2022/02/23 12:26:20;;;;;;;1.20;1.20;;;9.50;99.90;;;;;;4899206;29;20235;-70
2022/02/23 12:28:49;;;;;;;2.40;1.27;;;9.60;99.90;;;;;;4901693;29;20203;-69
2022/02/23 12:31:19;;;;;;;3.28;1.38;;;9.60;99.90;;;;;;4914455;29;20214;-69
2022/02/23 12:33:49;;;;;;;3.05;1.20;;;9.70;99.90;;;;;;4911541;29;20750;-69
2022/02/23 12:36:30;;;;;;;2.15;1.33;;;9.70;99.90;;;;;;4916231;29;20254;-68
2022/02/23 12:38:59;;;;;;;2.15;0.88;;;9.60;99.90;;;;;;4913919;29;20672;-69
2022/02/23 12:41:28;;;;;;;1.92;1.20;;;9.60;99.90;;;;;;4910150;29;20214;-69
2022/02/23 12:44:00;;;;;;;3.15;1.05;;;9.60;99.90;;;;;;4916229;29;20231;-68
2022/02/23 12:46:28;;;;;;;1.10;0.70;;;9.70;99.90;;;;;;4910784;29;20223;-70
2022/02/23 12:48:57;;;;;;;3.70;1.15;;;9.70;99.90;;;;;;4910169;29;20217;-69
2022/02/23 12:51:29;;;;;;;2.00;0.90;;;9.70;99.90;;;;;;4911820;29;20278;-69
2022/02/23 12:53:58;;;;;;;1.70;1.35;;;9.80;99.90;;;;;;4916214;29;20226;-69
2022/02/23 12:56:27;;;;;;;2.15;1.23;;;9.80;99.90;;;;;;4916274;29;20702;-69
2022/02/23 12:58:56;;;;;;;1.60;1.20;;;9.80;99.90;;;;;;4915832;29;20210;-69
2022/02/23 13:01:25;;;;;;;3.63;1.00;;;9.80;99.90;;;;;;4915881;29;20214;-69
2022/02/23 13:03:54;;;;;;;1.75;0.75;;;9.80;99.90;;;;;;4914574;29;20241;-69
2022/02/23 13:06:28;;;;;;;3.50;1.10;;;9.60;99.90;;;;;;4915996;29;20309;-69
2022/02/23 13:08:55;;;;;;;1.40;1.27;;;9.60;99.90;;;;;;4915651;29;20221;-69
2022/02/23 13:11:32;;;;;;;3.80;0.95;;;9.60;99.90;;;;;;4915994;29;20313;-69
2022/02/23 13:14:07;;;;;;;2.85;1.48;;;9.70;99.90;;;;;;4915633;29;20240;-69
2022/02/23 13:16:35;;;;;;;1.73;0.75;;;9.70;99.90;;;;;;4915826;29;20214;-69
2022/02/23 13:19:05;;;;;;;1.52;0.88;;;9.80;99.90;;;;;;4914476;29;20207;-69
2022/02/23 13:21:46;;;;;;;1.08;1.02;;;9.80;99.90;;;;;;4915660;29;20677;-69
2022/02/23 13:24:14;;;;;;;1.00;1.00;;;9.90;99.90;;;;;;4915536;29;20210;-69
2022/02/23 13:26:43;;;;;;;0.77;0.77;;;9.80;99.90;;;;;;4915415;29;20226;-69
2022/02/23 13:29:12;;;;;;;1.58;0.80;;;9.80;99.90;;;;;;4903782;29;20203;-69
2022/02/23 13:31:45;;;;;;;3.67;1.38;;;9.80;99.90;;;;;;4896294;29;20648;-69
2022/02/23 13:34:25;;;;;;;2.80;0.93;;;9.90;99.90;;;;;;4895634;29;20242;-69
2022/02/23 13:36:56;;;;;;;1.50;1.30;;;10.00;99.90;;;;;;4909286;29;20218;-69
2022/02/23 13:39:25;;;;;;;0.73;0.70;;;10.10;99.90;;;;;;4909916;29;20294;-69
2022/02/23 13:41:58;;;;;;;3.05;1.40;;;10.10;99.90;;;;;;4914563;29;20210;-70
2022/02/23 13:44:29;;;;;;;6.13;1.13;;;10.20;99.90;;;;;;4915293;29;20210;-69
2022/02/23 13:47:01;;;;;;;1.58;1.20;;;10.30;99.90;;;;;;4914604;29;20282;-69
2022/02/23 13:49:29;;;;;;;3.40;0.88;;;10.30;99.90;;;;;;4914665;29;20214;-68
2022/02/23 13:52:03;;;;;;;4.63;1.10;;;10.30;99.90;;;;;;4914895;29;20265;-69
2022/02/23 13:54:32;;;;;;;5.10;1.35;;;10.30;99.90;;;;;;4914934;29;20238;-69
2022/02/23 13:57:01;;;;;;;2.17;0.80;;;10.30;99.90;;;;;;4915987;29;20281;-69
2022/02/23 13:59:29;;;;;;;1.25;0.80;;;10.30;99.90;;;;;;4914649;29;20545;-69
2022/02/23 14:02:16;;;;;;;1.10;0.95;;;10.20;99.90;;;;;;4914934;29;20229;-69
2022/02/23 14:04:53;;;;;;;1.17;0.98;;;10.20;99.90;;;;;;4914764;29;20281;-70
2022/02/23 14:07:26;;;;;;;6.60;1.23;;;10.20;99.90;;;;;;4914813;29;20552;-69
2022/02/23 14:09:59;;;;;;;4.18;1.17;;;10.20;99.90;;;;;;4915120;29;20202;-69
2022/02/23 14:12:33;;;;;;;3.45;1.77;;;10.30;99.90;;;;;;4915169;29;20609;-68
2022/02/23 14:15:02;;;;;;;2.25;0.68;;;10.30;99.90;;;;;;4914782;29;20282;-68
2022/02/23 14:17:36;;;;;;;0.95;0.95;;;10.40;99.90;;;;;;4915190;29;20215;-68
2022/02/23 14:20:22;;;;;;;1.00;1.00;;;10.40;99.90;;;;;;4914241;29;20202;-69
2022/02/23 14:23:02;;;;;;;1.10;0.82;;;10.40;99.90;;;;;;4914846;29;20238;-69
2022/02/23 14:25:31;;;;;;;1.90;1.08;;;10.40;99.90;;;;;;4915105;29;20222;-68
2022/02/23 14:28:03;;;;;;;2.03;1.83;;;10.40;99.90;;;;;;4914595;29;20617;-69
2022/02/23 14:30:35;;;;;;;1.13;0.90;;;10.50;99.90;;;;;;4914703;29;20556;-68
2022/02/23 14:33:05;;;;;;;2.95;1.08;;;10.50;99.90;;;;;;4914217;29;20344;-68
2022/02/23 14:35:32;;;;;;;2.67;0.80;;;10.40;99.90;;;;;;4914395;29;20195;-68
2022/02/23 14:38:00;;;;;;;2.90;0.80;;;10.40;99.90;;;;;;4913906;29;20211;-68
2022/02/23 14:40:29;;;;;;;2.30;1.20;;;10.30;99.90;;;;;;4914146;29;20644;-68
2022/02/23 14:42:56;;;;;;;4.85;1.25;;;10.30;99.90;;;;;;4913415;29;20305;-68
2022/02/23 14:45:23;;;;;;;1.20;1.15;;;10.30;99.90;;;;;;4913744;29;20652;-68
2022/02/23 14:47:50;;;;;;;1.10;1.10;;;10.40;99.90;;;;;;4913071;29;20346;-67
2022/02/23 14:50:19;;;;;;;1.20;1.20;;;10.30;99.90;;;;;;4913516;29;20210;-69
2022/02/23 14:52:46;;;;;;;2.80;1.17;;;10.30;99.90;;;;;;4913955;29;20230;-69
2022/02/23 14:55:15;;;;;;;4.47;1.13;;;10.30;99.90;;;;;;4914323;29;20241;-68
2022/02/23 14:57:43;;;;;;;3.10;1.65;;;10.20;99.90;;;;;;4907742;29;20661;-68
2022/02/23 15:00:13;;;;;;;1.95;1.10;;;10.20;99.90;;;;;;4907486;29;20214;-68
2022/02/23 15:02:40;;;;;;;1.75;0.95;;;10.30;99.90;;;;;;4913007;29;20222;-68
2022/02/23 15:05:09;;;;;;;1.95;0.95;;;10.30;99.90;;;;;;4911267;29;20230;-67
2022/02/23 15:07:36;;;;;;;0.93;0.90;;;10.30;99.90;;;;;;4912099;29;20317;-69
2022/02/23 15:10:06;;;;;;;2.03;1.92;;;10.30;99.90;;;;;;4898732;29;20211;-69
2022/02/23 15:12:34;;;;;;;3.88;1.63;;;10.30;99.90;;;;;;4912833;29;20750;-69
2022/02/23 15:15:01;;;;;;;1.35;1.25;;;10.20;99.90;;;;;;4913707;29;20210;-69
2022/02/23 15:17:28;;;;;;;3.92;1.15;;;10.10;99.90;;;;;;4912690;29;20211;-68
2022/02/23 15:19:57;;;;;;;1.40;1.30;;;10.10;99.90;;;;;;4913137;29;20242;-68
2022/02/23 15:22:23;;;;;;;1.73;0.70;;;10.00;99.90;;;;;;4913158;29;20237;-69
2022/02/23 15:24:50;;;;;;;4.40;1.58;;;9.90;99.90;;;;;;4913224;29;20221;-69
2022/02/23 15:27:17;;;;;;;1.02;1.02;;;9.80;99.90;;;;;;4903146;29;20244;-68
2022/02/23 15:29:45;;;;;;;1.02;0.93;;;9.80;99.90;;;;;;4912166;29;20203;-70
2022/02/23 15:32:12;;;;;;;0.90;0.90;;;9.70;99.90;;;;;;4914644;29;20269;-70
2022/02/23 15:34:39;;;;;;;2.28;1.08;;;9.70;99.90;;;;;;4910086;29;20231;-69
2022/02/23 15:37:06;;;;;;;3.42;1.08;;;9.60;99.90;;;;;;4903145;29;20203;-70
2022/02/23 15:39:33;;;;;;;2.20;1.55;;;9.60;99.90;;;;;;4915509;29;20286;-69
2022/02/23 15:42:01;;;;;;;2.35;1.05;;;9.60;99.90;;;;;;4910443;29;20616;-68
2022/02/23 15:44:28;;;;;;;1.85;1.48;;;9.60;99.90;;;;;;4914552;29;20230;-68
2022/02/23 15:46:56;;;;;;;2.35;1.20;;;9.60;99.90;;;;;;4916491;29;20262;-69
2022/02/23 15:49:23;;;;;;;1.15;0.85;;;9.60;99.90;;;;;;4915848;29;20270;-68
2022/02/23 15:51:49;;;;;;;1.58;1.27;;;9.50;99.90;;;;;;4915450;29;20214;-69
2022/02/23 15:54:16;;;;;;;1.05;0.68;;;9.10;99.90;;;;;;4916468;29;20588;-69
2022/02/23 15:56:43;;;;;;;1.00;0.88;;;9.50;99.90;;;;;;4917061;29;20218;-71
2022/02/23 15:59:10;;;;;;;0.90;0.85;;;9.50;99.90;;;;;;4916080;29;20210;-69
2022/02/23 16:01:36;;;;;;;0.90;0.90;;;9.50;99.90;;;;;;4916412;29;20349;-68
2022/02/23 16:04:05;;;;;;;1.50;0.93;;;9.50;99.90;;;;;;4916960;29;20222;-69
2022/02/23 16:06:32;;;;;;;0.90;0.85;;;9.40;99.90;;;;;;4916099;29;20222;-68
2022/02/23 16:09:01;;;;;;;2.55;1.25;;;9.40;99.90;;;;;;4912547;29;20207;-68
2022/02/23 16:11:28;;;;;;;1.00;1.00;;;9.40;99.90;;;;;;4911430;29;20210;-66
2022/02/23 16:13:54;;;;;;;2.35;0.90;;;9.40;99.90;;;;;;4909423;29;20708;-68
2022/02/23 16:16:21;;;;;;;1.83;1.17;;;9.30;99.90;;;;;;4914314;29;20211;-68
2022/02/23 16:18:48;;;;;;;1.88;1.73;;;9.30;99.90;;;;;;4912134;29;20241;-69
2022/02/23 16:21:18;;;;;;;1.73;1.63;;;9.20;99.90;;;;;;4913446;29;20249;-69
2022/02/23 16:23:46;;;;;;;2.05;1.20;;;9.20;99.90;;;;;;4909166;29;20237;-68
2022/02/23 16:26:17;;;;;;;0.70;0.70;;;9.10;99.90;;;;;;4913063;29;20234;-68
2022/02/23 16:28:44;;;;;;;1.38;1.00;;;9.10;99.90;;;;;;4912353;29;20216;-68
2022/02/23 16:31:10;;;;;;;1.00;1.00;;;9.10;99.90;;;;;;4912993;29;20221;-70
2022/02/23 16:33:37;;;;;;;0.98;0.98;;;9.00;99.90;;;;;;4910446;29;20297;-69
2022/02/23 16:36:04;;;;;;;4.10;1.20;;;9.00;99.90;;;;;;4913329;29;20210;-69
2022/02/23 16:38:32;;;;;;;1.50;1.30;;;8.90;99.90;;;;;;4912742;29;20210;-69
2022/02/23 16:40:59;;;;;;;1.45;1.35;;;8.90;99.90;;;;;;4912815;29;20203;-69
2022/02/23 16:43:29;;;;;;;1.15;0.90;;;8.80;99.90;;;;;;4894434;29;20231;-69
2022/02/23 16:45:56;;;;;;;0.85;0.85;;;8.80;99.90;;;;;;4901505;29;20278;-70
2022/02/23 16:48:22;;;;;;;2.53;1.23;;;8.80;99.90;;;;;;4906517;29;20206;-67
2022/02/23 16:50:49;;;;;;;2.78;1.13;;;8.70;99.90;;;;;;4903884;29;20302;-67
2022/02/23 16:53:16;;;;;;;0.82;0.82;;;8.70;99.90;;;;;;4899327;29;20707;-68
2022/02/23 16:55:44;;;;;;;1.38;1.25;;;8.70;99.90;;;;;;4911606;29;20298;-68
2022/02/23 16:58:12;;;;;;;1.95;0.95;;;8.60;99.90;;;;;;4913258;29;20237;-70
2022/02/23 17:00:39;;;;;;;1.08;1.08;;;8.60;99.90;;;;;;4919125;29;20280;-70
2022/02/23 17:03:06;;;;;;;2.25;1.10;;;8.50;99.90;;;;;;4929120;29;20293;-68
2022/02/23 17:05:33;;;;;;;4.20;1.25;;;8.50;99.90;;;;;;4902656;29;20330;-68
2022/02/23 17:08:00;;;;;;;3.03;1.20;;;8.40;99.90;;;;;;4914387;29;20536;-68
2022/02/23 17:10:27;;;;;;;1.60;1.50;;;8.40;99.90;;;;;;4915007;29;20238;-68
2022/02/23 17:12:55;;;;;;;1.23;1.10;;;8.30;99.90;;;;;;4931177;29;20262;-68
2022/02/23 17:15:22;;;;;;;1.48;1.10;;;8.30;99.90;;;;;;4914897;29;20218;-70
2022/02/23 17:17:49;;;;;;;1.52;1.00;;;8.20;99.90;;;;;;4899984;29;20212;-69
2022/02/23 17:20:17;;;;;;;2.05;0.90;;;8.20;99.90;;;;;;4910099;29;20293;-68
2022/02/23 17:22:43;;;;;;;1.38;1.27;;;8.20;99.90;;;;;;4914183;29;20234;-68
2022/02/23 17:25:10;;;;;;;1.13;1.13;;;8.10;99.90;;;;;;4914735;29;20207;-69
2022/02/23 17:27:38;;;;;;;1.65;1.35;;;8.10;99.90;;;;;;4916355;29;20557;-70
2022/02/23 17:30:10;;;;;;;1.73;1.73;;;8.00;99.90;;;;;;4926346;29;20210;-68
2022/02/23 17:32:37;;;;;;;0.93;0.93;;;7.90;99.90;;;;;;4901674;29;20614;-69
2022/02/23 17:35:06;;;;;;;0.85;0.85;;;7.90;99.90;;;;;;4913989;29;20210;-69
2022/02/23 17:37:33;;;;;;;1.52;1.40;;;7.80;99.90;;;;;;4913951;29;20274;-68
2022/02/23 17:40:00;;;;;;;4.55;2.08;;;7.80;99.90;;;;;;4913373;29;20559;-67
2022/02/23 17:42:27;;;;;;;2.55;1.30;;;7.70;99.90;;;;;;4913639;29;20234;-69
2022/02/23 17:44:54;;;;;;;1.65;1.17;;;7.70;99.90;;;;;;4909153;29;20261;-68
2022/02/23 17:47:22;;;;;;;2.30;1.50;;;7.60;99.90;;;;;;4910383;29;20230;-70
2022/02/23 17:49:49;;;;;;;3.70;2.50;;;7.60;99.90;;;;;;4921505;29;20269;-69
2022/02/23 17:52:21;;;;;;;4.35;1.60;;;7.50;99.90;;;;;;4926264;29;20246;-70
2022/02/23 17:54:48;;;;;;;1.58;1.35;;;7.50;99.90;;;;;;4912718;29;20242;-69
2022/02/23 17:57:15;;;;;;;1.60;1.50;;;7.50;99.90;;;;;;4912091;29;20213;-68
2022/02/23 17:59:42;;;;;;;1.42;1.27;;;7.50;99.90;;;;;;4913116;29;20198;-69
2022/02/23 18:02:09;;;;;;;1.90;1.52;;;7.40;99.90;;;;;;4920921;29;20320;-69
2022/02/23 18:04:38;;;;;;;3.17;1.38;;;7.40;99.90;;;;;;4928251;29;20278;-69
2022/02/23 18:07:05;;;;;;;1.90;1.83;;;7.40;99.90;;;;;;4913769;29;20638;-69